Accueil
METAR-TAF:

METAR-TAF

Aéroports :

Aéroport de Gênes-Christophe Colomb

Gênes, Italie

latitude: 44-25N, longitude: 008-51E, altitude: 2 m

Observation

Le bulletin a été fait il y a 36 minutes, à 20:50 UTC
Vent 9 kt de nord/nord-est, variant entre nord et est/nord-est
Température 11°C
Humidité 43%
Pression 1023 hPa
Visibilité 10 km ou plus
pas de nuages en-dessous de 1500 mètres et pas de cumulonimbus.

METAR: LIMJ 172050Z 03009KT 350V070 CAVOK 11/M01 Q1023

Heure: 22:26 (21:26 UTC)

Prévision

Le bulletin a été fait il y a 4 heures et 26 minutes, à 17:00 UTC
Prévision valable du 17 à 18 UTC au 18 à 18 UTC
Vent 15 kt de nord
Visibilité 10 km ou plus
pas de nuages en-dessous de 1500 mètres et pas de cumulonimbus.
Temporairement
du 18 à 06 UTC au 18 à 15 UTC
Vent 15 kt de nord avec des rafales jusqu'à 25 kt

TAF: LIMJ 171700Z 1718/1818 01015KT CAVOK TEMPO 1806/1815 01015G25KT

Observations et prévisions météorologiques de plus de 4000 aéroports (messages METAR et TAF).

Les stations disponibles sont représentées par des disques jaunes et rouges sur la carte.

Passer la souris dessus pour voir le nom de la station.

Cliquer dessus pour voir les observations et prévisions météorologiques.

Pour changer de carte: cliquez sur les boutons verts avec une croix noire pour zoomer, sur le bouton vert avec un tiret pour effectuer un zoom arrière, ou sur les flèches vertes pour les cartes adjacentes.


METAR-TAF: